sensor_id;sensor_type;location;lat;lon;timestamp;P1;durP1;ratioP1;P2;durP2;ratioP2
19883;SDS011;10104;50.732;10.174;2023-08-17T00:01:44;4.22;;;1.30;;
19883;SDS011;10104;50.732;10.174;2023-08-17T00:04:24;3.85;;;1.30;;
19883;SDS011;10104;50.732;10.174;2023-08-17T00:07:05;3.78;;;1.38;;
19883;SDS011;10104;50.732;10.174;2023-08-17T00:09:45;2.22;;;1.27;;
19883;SDS011;10104;50.732;10.174;2023-08-17T00:12:26;6.18;;;1.75;;
19883;SDS011;10104;50.732;10.174;2023-08-17T00:15:06;3.05;;;1.73;;
19883;SDS011;10104;50.732;10.174;2023-08-17T00:17:47;6.85;;;1.95;;
19883;SDS011;10104;50.732;10.174;2023-08-17T00:20:27;3.40;;;1.50;;
19883;SDS011;10104;50.732;10.174;2023-08-17T00:23:07;3.67;;;1.58;;
19883;SDS011;10104;50.732;10.174;2023-08-17T00:25:48;4.88;;;1.63;;
19883;SDS011;10104;50.732;10.174;2023-08-17T00:28:28;7.20;;;1.50;;
19883;SDS011;10104;50.732;10.174;2023-08-17T00:31:08;3.80;;;1.50;;
19883;SDS011;10104;50.732;10.174;2023-08-17T00:33:48;3.03;;;1.50;;
19883;SDS011;10104;50.732;10.174;2023-08-17T00:36:28;2.85;;;1.40;;
19883;SDS011;10104;50.732;10.174;2023-08-17T00:39:08;3.10;;;1.40;;
19883;SDS011;10104;50.732;10.174;2023-08-17T00:41:48;6.35;;;1.30;;
19883;SDS011;10104;50.732;10.174;2023-08-17T00:44:28;2.45;;;1.23;;
19883;SDS011;10104;50.732;10.174;2023-08-17T00:47:08;3.35;;;1.20;;
19883;SDS011;10104;50.732;10.174;2023-08-17T00:49:49;2.00;;;1.33;;
19883;SDS011;10104;50.732;10.174;2023-08-17T00:52:29;5.00;;;1.30;;
19883;SDS011;10104;50.732;10.174;2023-08-17T00:55:12;2.35;;;1.20;;
19883;SDS011;10104;50.732;10.174;2023-08-17T00:57:52;2.75;;;1.33;;
19883;SDS011;10104;50.732;10.174;2023-08-17T01:00:33;1.88;;;1.27;;
19883;SDS011;10104;50.732;10.174;2023-08-17T01:03:14;2.15;;;1.30;;
19883;SDS011;10104;50.732;10.174;2023-08-17T01:05:56;1.60;;;1.38;;
19883;SDS011;10104;50.732;10.174;2023-08-17T01:08:36;2.90;;;1.38;;
19883;SDS011;10104;50.732;10.174;2023-08-17T01:11:20;2.78;;;1.60;;
19883;SDS011;10104;50.732;10.174;2023-08-17T01:14:27;3.00;;;1.77;;
19883;SDS011;10104;50.732;10.174;2023-08-17T01:17:10;2.38;;;1.45;;
19883;SDS011;10104;50.732;10.174;2023-08-17T01:19:55;2.38;;;1.23;;
19883;SDS011;10104;50.732;10.174;2023-08-17T01:22:38;2.63;;;1.27;;
19883;SDS011;10104;50.732;10.174;2023-08-17T01:25:22;2.78;;;1.40;;
19883;SDS011;10104;50.732;10.174;2023-08-17T01:28:03;3.05;;;1.35;;
19883;SDS011;10104;50.732;10.174;2023-08-17T01:30:46;2.78;;;1.52;;
19883;SDS011;10104;50.732;10.174;2023-08-17T01:33:35;3.40;;;1.40;;
19883;SDS011;10104;50.732;10.174;2023-08-17T01:36:20;4.57;;;1.50;;
19883;SDS011;10104;50.732;10.174;2023-08-17T01:39:05;2.65;;;1.30;;
19883;SDS011;10104;50.732;10.174;2023-08-17T01:41:47;1.60;;;1.50;;
19883;SDS011;10104;50.732;10.174;2023-08-17T01:44:27;4.28;;;1.90;;
19883;SDS011;10104;50.732;10.174;2023-08-17T01:47:08;3.63;;;1.50;;
19883;SDS011;10104;50.732;10.174;2023-08-17T01:49:49;3.90;;;1.40;;
19883;SDS011;10104;50.732;10.174;2023-08-17T01:52:29;3.22;;;1.58;;
19883;SDS011;10104;50.732;10.174;2023-08-17T01:55:09;6.60;;;1.70;;
19883;SDS011;10104;50.732;10.174;2023-08-17T01:57:50;5.93;;;1.55;;
19883;SDS011;10104;50.732;10.174;2023-08-17T02:00:30;8.95;;;1.67;;
19883;SDS011;10104;50.732;10.174;2023-08-17T02:03:10;12.02;;;1.40;;
19883;SDS011;10104;50.732;10.174;2023-08-17T02:05:50;2.45;;;1.42;;
19883;SDS011;10104;50.732;10.174;2023-08-17T02:08:32;5.32;;;1.45;;
19883;SDS011;10104;50.732;10.174;2023-08-17T02:11:13;1.40;;;1.30;;
19883;SDS011;10104;50.732;10.174;2023-08-17T02:13:54;3.65;;;1.35;;
19883;SDS011;10104;50.732;10.174;2023-08-17T02:16:34;2.25;;;1.30;;
19883;SDS011;10104;50.732;10.174;2023-08-17T02:19:14;3.22;;;1.50;;
19883;SDS011;10104;50.732;10.174;2023-08-17T02:21:55;2.03;;;1.27;;
19883;SDS011;10104;50.732;10.174;2023-08-17T02:24:34;2.20;;;1.45;;
19883;SDS011;10104;50.732;10.174;2023-08-17T02:27:15;1.80;;;1.42;;
19883;SDS011;10104;50.732;10.174;2023-08-17T02:29:55;4.00;;;1.42;;
19883;SDS011;10104;50.732;10.174;2023-08-17T02:32:35;7.38;;;1.50;;
19883;SDS011;10104;50.732;10.174;2023-08-17T02:35:16;3.38;;;1.60;;
19883;SDS011;10104;50.732;10.174;2023-08-17T02:37:56;6.10;;;1.77;;
19883;SDS011;10104;50.732;10.174;2023-08-17T02:40:36;6.93;;;1.80;;
19883;SDS011;10104;50.732;10.174;2023-08-17T02:43:16;10.85;;;1.95;;
19883;SDS011;10104;50.732;10.174;2023-08-17T02:45:56;12.13;;;2.00;;
19883;SDS011;10104;50.732;10.174;2023-08-17T02:48:37;8.95;;;2.15;;
19883;SDS011;10104;50.732;10.174;2023-08-17T02:51:17;3.92;;;1.60;;
19883;SDS011;10104;50.732;10.174;2023-08-17T02:53:57;11.38;;;1.80;;
19883;SDS011;10104;50.732;10.174;2023-08-17T02:56:37;5.97;;;1.70;;
19883;SDS011;10104;50.732;10.174;2023-08-17T02:59:17;5.35;;;1.63;;
19883;SDS011;10104;50.732;10.174;2023-08-17T03:01:57;5.35;;;1.58;;
19883;SDS011;10104;50.732;10.174;2023-08-17T03:04:37;4.60;;;1.70;;
19883;SDS011;10104;50.732;10.174;2023-08-17T03:07:17;12.50;;;1.70;;
19883;SDS011;10104;50.732;10.174;2023-08-17T03:09:58;7.85;;;1.52;;
19883;SDS011;10104;50.732;10.174;2023-08-17T03:12:38;3.72;;;1.38;;
19883;SDS011;10104;50.732;10.174;2023-08-17T03:15:18;4.93;;;1.67;;
19883;SDS011;10104;50.732;10.174;2023-08-17T03:17:59;6.13;;;1.88;;
19883;SDS011;10104;50.732;10.174;2023-08-17T03:20:39;13.25;;;2.00;;
19883;SDS011;10104;50.732;10.174;2023-08-17T03:23:19;5.30;;;1.70;;
19883;SDS011;10104;50.732;10.174;2023-08-17T03:25:59;6.63;;;1.70;;
19883;SDS011;10104;50.732;10.174;2023-08-17T03:28:39;4.60;;;1.60;;
19883;SDS011;10104;50.732;10.174;2023-08-17T03:31:20;6.10;;;2.00;;
19883;SDS011;10104;50.732;10.174;2023-08-17T03:34:01;4.45;;;1.88;;
19883;SDS011;10104;50.732;10.174;2023-08-17T03:36:41;3.40;;;2.10;;
19883;SDS011;10104;50.732;10.174;2023-08-17T03:39:21;4.25;;;2.30;;
19883;SDS011;10104;50.732;10.174;2023-08-17T03:42:01;5.00;;;2.03;;
19883;SDS011;10104;50.732;10.174;2023-08-17T03:44:41;8.60;;;2.10;;
19883;SDS011;10104;50.732;10.174;2023-08-17T03:47:22;9.93;;;2.10;;
19883;SDS011;10104;50.732;10.174;2023-08-17T03:50:02;7.22;;;2.08;;
19883;SDS011;10104;50.732;10.174;2023-08-17T03:52:43;13.90;;;2.20;;
19883;SDS011;10104;50.732;10.174;2023-08-17T03:55:23;5.90;;;2.30;;
19883;SDS011;10104;50.732;10.174;2023-08-17T03:58:03;6.65;;;2.05;;
19883;SDS011;10104;50.732;10.174;2023-08-17T04:00:50;5.90;;;1.73;;
19883;SDS011;10104;50.732;10.174;2023-08-17T04:03:30;8.00;;;2.05;;
19883;SDS011;10104;50.732;10.174;2023-08-17T04:06:10;7.78;;;1.85;;
19883;SDS011;10104;50.732;10.174;2023-08-17T04:08:51;6.22;;;1.50;;
19883;SDS011;10104;50.732;10.174;2023-08-17T04:11:34;8.63;;;2.20;;
19883;SDS011;10104;50.732;10.174;2023-08-17T04:14:15;5.22;;;2.00;;
19883;SDS011;10104;50.732;10.174;2023-08-17T04:16:58;5.55;;;2.10;;
19883;SDS011;10104;50.732;10.174;2023-08-17T04:19:38;5.93;;;2.00;;
19883;SDS011;10104;50.732;10.174;2023-08-17T04:22:18;7.95;;;2.05;;
19883;SDS011;10104;50.732;10.174;2023-08-17T04:24:58;10.88;;;2.47;;
19883;SDS011;10104;50.732;10.174;2023-08-17T04:27:38;6.18;;;2.10;;
19883;SDS011;10104;50.732;10.174;2023-08-17T04:30:19;3.33;;;1.77;;
19883;SDS011;10104;50.732;10.174;2023-08-17T04:32:59;2.85;;;2.20;;
19883;SDS011;10104;50.732;10.174;2023-08-17T04:35:39;9.45;;;2.50;;
19883;SDS011;10104;50.732;10.174;2023-08-17T04:38:19;5.25;;;2.47;;
19883;SDS011;10104;50.732;10.174;2023-08-17T04:41:00;3.92;;;2.90;;
19883;SDS011;10104;50.732;10.174;2023-08-17T04:43:40;7.60;;;2.80;;
19883;SDS011;10104;50.732;10.174;2023-08-17T04:46:20;3.78;;;2.72;;
19883;SDS011;10104;50.732;10.174;2023-08-17T04:49:01;3.63;;;2.17;;
19883;SDS011;10104;50.732;10.174;2023-08-17T04:51:41;4.43;;;3.00;;
19883;SDS011;10104;50.732;10.174;2023-08-17T04:54:21;3.85;;;3.25;;
19883;SDS011;10104;50.732;10.174;2023-08-17T04:57:01;3.58;;;3.25;;
19883;SDS011;10104;50.732;10.174;2023-08-17T04:59:43;3.28;;;2.97;;
19883;SDS011;10104;50.732;10.174;2023-08-17T05:02:23;5.65;;;3.10;;
19883;SDS011;10104;50.732;10.174;2023-08-17T05:05:04;7.65;;;3.30;;
19883;SDS011;10104;50.732;10.174;2023-08-17T05:07:44;10.15;;;3.58;;
19883;SDS011;10104;50.732;10.174;2023-08-17T05:10:25;8.43;;;3.30;;
19883;SDS011;10104;50.732;10.174;2023-08-17T05:13:05;4.85;;;3.60;;
19883;SDS011;10104;50.732;10.174;2023-08-17T05:15:45;7.25;;;3.90;;
19883;SDS011;10104;50.732;10.174;2023-08-17T05:18:25;6.47;;;4.20;;
19883;SDS011;10104;50.732;10.174;2023-08-17T05:21:06;5.32;;;3.67;;
19883;SDS011;10104;50.732;10.174;2023-08-17T05:23:46;6.03;;;3.58;;
19883;SDS011;10104;50.732;10.174;2023-08-17T05:26:26;8.05;;;5.00;;
19883;SDS011;10104;50.732;10.174;2023-08-17T05:29:06;6.88;;;3.63;;
19883;SDS011;10104;50.732;10.174;2023-08-17T05:31:47;5.63;;;3.60;;
19883;SDS011;10104;50.732;10.174;2023-08-17T05:34:27;8.32;;;4.22;;
19883;SDS011;10104;50.732;10.174;2023-08-17T05:37:07;7.10;;;5.10;;
19883;SDS011;10104;50.732;10.174;2023-08-17T05:39:48;8.88;;;5.43;;
19883;SDS011;10104;50.732;10.174;2023-08-17T05:42:28;5.82;;;5.25;;
19883;SDS011;10104;50.732;10.174;2023-08-17T05:45:08;7.78;;;5.40;;
19883;SDS011;10104;50.732;10.174;2023-08-17T05:47:49;21.23;;;5.10;;
19883;SDS011;10104;50.732;10.174;2023-08-17T05:50:29;23.60;;;4.85;;
19883;SDS011;10104;50.732;10.174;2023-08-17T05:53:10;21.33;;;4.82;;
19883;SDS011;10104;50.732;10.174;2023-08-17T05:55:50;101.20;;;6.85;;
19883;SDS011;10104;50.732;10.174;2023-08-17T05:58:30;94.65;;;6.13;;
19883;SDS011;10104;50.732;10.174;2023-08-17T06:01:10;92.78;;;6.28;;
19883;SDS011;10104;50.732;10.174;2023-08-17T06:03:51;132.32;;;7.10;;
19883;SDS011;10104;50.732;10.174;2023-08-17T06:06:32;60.30;;;5.25;;
19883;SDS011;10104;50.732;10.174;2023-08-17T06:09:12;60.78;;;6.22;;
19883;SDS011;10104;50.732;10.174;2023-08-17T06:11:52;64.07;;;6.72;;
19883;SDS011;10104;50.732;10.174;2023-08-17T06:14:32;30.90;;;5.28;;
19883;SDS011;10104;50.732;10.174;2023-08-17T06:17:13;73.18;;;6.13;;
19883;SDS011;10104;50.732;10.174;2023-08-17T06:19:53;17.90;;;4.57;;
19883;SDS011;10104;50.732;10.174;2023-08-17T06:22:34;14.63;;;4.43;;
19883;SDS011;10104;50.732;10.174;2023-08-17T06:25:14;29.05;;;5.00;;
19883;SDS011;10104;50.732;10.174;2023-08-17T06:27:54;9.88;;;3.78;;
19883;SDS011;10104;50.732;10.174;2023-08-17T06:30:35;14.55;;;4.20;;
19883;SDS011;10104;50.732;10.174;2023-08-17T06:33:15;29.90;;;4.45;;
19883;SDS011;10104;50.732;10.174;2023-08-17T06:35:55;16.67;;;3.97;;
19883;SDS011;10104;50.732;10.174;2023-08-17T06:38:35;5.80;;;4.00;;
19883;SDS011;10104;50.732;10.174;2023-08-17T06:41:16;8.85;;;4.22;;
19883;SDS011;10104;50.732;10.174;2023-08-17T06:43:57;6.18;;;4.22;;
19883;SDS011;10104;50.732;10.174;2023-08-17T06:46:37;5.35;;;4.25;;
19883;SDS011;10104;50.732;10.174;2023-08-17T06:49:17;7.68;;;4.20;;
19883;SDS011;10104;50.732;10.174;2023-08-17T06:51:58;9.30;;;4.18;;
19883;SDS011;10104;50.732;10.174;2023-08-17T06:54:38;7.90;;;4.43;;
19883;SDS011;10104;50.732;10.174;2023-08-17T06:57:18;4.85;;;4.35;;
19883;SDS011;10104;50.732;10.174;2023-08-17T07:00:01;4.47;;;4.07;;
19883;SDS011;10104;50.732;10.174;2023-08-17T07:02:45;5.22;;;4.55;;
19883;SDS011;10104;50.732;10.174;2023-08-17T07:05:35;4.22;;;3.78;;
19883;SDS011;10104;50.732;10.174;2023-08-17T07:08:15;4.15;;;3.75;;
19883;SDS011;10104;50.732;10.174;2023-08-17T07:10:56;4.25;;;3.85;;
19883;SDS011;10104;50.732;10.174;2023-08-17T07:13:37;4.97;;;4.57;;
19883;SDS011;10104;50.732;10.174;2023-08-17T07:16:17;4.45;;;4.05;;
19883;SDS011;10104;50.732;10.174;2023-08-17T07:18:57;3.90;;;3.60;;
19883;SDS011;10104;50.732;10.174;2023-08-17T07:21:37;4.13;;;3.83;;
19883;SDS011;10104;50.732;10.174;2023-08-17T07:24:17;8.68;;;3.95;;
19883;SDS011;10104;50.732;10.174;2023-08-17T07:26:57;3.92;;;3.20;;
19883;SDS011;10104;50.732;10.174;2023-08-17T07:29:38;4.88;;;3.40;;
19883;SDS011;10104;50.732;10.174;2023-08-17T07:32:18;3.78;;;3.47;;
19883;SDS011;10104;50.732;10.174;2023-08-17T07:34:59;4.88;;;3.97;;
19883;SDS011;10104;50.732;10.174;2023-08-17T07:37:39;6.03;;;3.35;;
19883;SDS011;10104;50.732;10.174;2023-08-17T07:40:19;5.85;;;3.90;;
19883;SDS011;10104;50.732;10.174;2023-08-17T07:42:59;4.75;;;3.47;;
19883;SDS011;10104;50.732;10.174;2023-08-17T07:45:39;3.78;;;3.47;;
19883;SDS011;10104;50.732;10.174;2023-08-17T07:48:19;6.95;;;3.10;;
19883;SDS011;10104;50.732;10.174;2023-08-17T07:50:59;4.03;;;3.58;;
19883;SDS011;10104;50.732;10.174;2023-08-17T07:53:39;4.13;;;3.80;;
19883;SDS011;10104;50.732;10.174;2023-08-17T07:56:20;4.50;;;3.22;;
19883;SDS011;10104;50.732;10.174;2023-08-17T07:59:00;3.92;;;3.60;;
19883;SDS011;10104;50.732;10.174;2023-08-17T08:01:40;5.13;;;4.05;;
19883;SDS011;10104;50.732;10.174;2023-08-17T08:04:22;4.40;;;4.00;;
19883;SDS011;10104;50.732;10.174;2023-08-17T08:07:02;4.13;;;3.53;;
19883;SDS011;10104;50.732;10.174;2023-08-17T08:09:42;4.43;;;4.00;;
19883;SDS011;10104;50.732;10.174;2023-08-17T08:12:23;5.30;;;3.50;;
19883;SDS011;10104;50.732;10.174;2023-08-17T08:15:03;4.85;;;3.70;;
19883;SDS011;10104;50.732;10.174;2023-08-17T08:17:44;3.90;;;3.60;;
19883;SDS011;10104;50.732;10.174;2023-08-17T08:20:25;6.55;;;3.80;;
19883;SDS011;10104;50.732;10.174;2023-08-17T08:23:05;4.80;;;4.30;;
19883;SDS011;10104;50.732;10.174;2023-08-17T08:25:45;6.05;;;4.38;;
19883;SDS011;10104;50.732;10.174;2023-08-17T08:28:25;3.88;;;3.58;;
19883;SDS011;10104;50.732;10.174;2023-08-17T08:31:06;5.65;;;3.78;;
19883;SDS011;10104;50.732;10.174;2023-08-17T08:33:47;4.78;;;4.32;;
19883;SDS011;10104;50.732;10.174;2023-08-17T08:36:27;6.38;;;4.63;;
19883;SDS011;10104;50.732;10.174;2023-08-17T08:39:07;4.47;;;4.07;;
19883;SDS011;10104;50.732;10.174;2023-08-17T08:41:47;4.63;;;3.80;;
19883;SDS011;10104;50.732;10.174;2023-08-17T08:44:27;4.15;;;3.80;;
19883;SDS011;10104;50.732;10.174;2023-08-17T08:47:08;4.28;;;3.97;;
19883;SDS011;10104;50.732;10.174;2023-08-17T08:49:59;4.22;;;3.92;;
19883;SDS011;10104;50.732;10.174;2023-08-17T08:52:44;5.05;;;4.55;;
19883;SDS011;10104;50.732;10.174;2023-08-17T08:55:34;5.95;;;4.40;;
19883;SDS011;10104;50.732;10.174;2023-08-17T08:58:25;4.88;;;4.40;;
19883;SDS011;10104;50.732;10.174;2023-08-17T09:01:05;4.35;;;3.95;;
19883;SDS011;10104;50.732;10.174;2023-08-17T09:03:48;3.85;;;3.45;;
19883;SDS011;10104;50.732;10.174;2023-08-17T09:06:29;3.53;;;3.22;;
19883;SDS011;10104;50.732;10.174;2023-08-17T09:09:10;3.83;;;3.53;;
19883;SDS011;10104;50.732;10.174;2023-08-17T09:11:54;4.47;;;3.75;;
19883;SDS011;10104;50.732;10.174;2023-08-17T09:14:35;5.05;;;4.30;;
19883;SDS011;10104;50.732;10.174;2023-08-17T09:17:22;4.65;;;4.25;;
19883;SDS011;10104;50.732;10.174;2023-08-17T09:20:04;6.88;;;4.50;;
19883;SDS011;10104;50.732;10.174;2023-08-17T09:22:47;7.88;;;4.68;;
19883;SDS011;10104;50.732;10.174;2023-08-17T09:25:33;6.18;;;5.13;;
19883;SDS011;10104;50.732;10.174;2023-08-17T09:28:18;5.82;;;5.22;;
19883;SDS011;10104;50.732;10.174;2023-08-17T09:31:00;5.82;;;5.32;;
19883;SDS011;10104;50.732;10.174;2023-08-17T09:33:45;9.15;;;5.30;;
19883;SDS011;10104;50.732;10.174;2023-08-17T09:36:29;6.50;;;5.53;;
19883;SDS011;10104;50.732;10.174;2023-08-17T09:39:09;5.65;;;5.10;;
19883;SDS011;10104;50.732;10.174;2023-08-17T09:41:54;6.25;;;5.65;;
19883;SDS011;10104;50.732;10.174;2023-08-17T09:44:35;6.47;;;5.65;;
19883;SDS011;10104;50.732;10.174;2023-08-17T09:47:17;6.85;;;5.13;;
19883;SDS011;10104;50.732;10.174;2023-08-17T09:49:58;6.50;;;5.70;;
19883;SDS011;10104;50.732;10.174;2023-08-17T09:52:38;6.50;;;5.88;;
19883;SDS011;10104;50.732;10.174;2023-08-17T09:55:19;8.80;;;6.65;;
19883;SDS011;10104;50.732;10.174;2023-08-17T09:58:01;7.40;;;6.18;;
19883;SDS011;10104;50.732;10.174;2023-08-17T10:00:44;8.20;;;6.90;;
19883;SDS011;10104;50.732;10.174;2023-08-17T10:03:29;7.10;;;6.50;;
19883;SDS011;10104;50.732;10.174;2023-08-17T10:06:14;8.82;;;6.32;;
19883;SDS011;10104;50.732;10.174;2023-08-17T10:09:06;7.30;;;6.57;;
19883;SDS011;10104;50.732;10.174;2023-08-17T10:11:48;7.95;;;7.32;;
19883;SDS011;10104;50.732;10.174;2023-08-17T10:14:37;10.50;;;7.03;;
19883;SDS011;10104;50.732;10.174;2023-08-17T10:17:25;7.80;;;7.00;;
19883;SDS011;10104;50.732;10.174;2023-08-17T10:20:08;7.68;;;6.97;;
19883;SDS011;10104;50.732;10.174;2023-08-17T10:22:51;8.98;;;7.78;;
19883;SDS011;10104;50.732;10.174;2023-08-17T10:25:36;7.65;;;6.95;;
19883;SDS011;10104;50.732;10.174;2023-08-17T10:28:18;7.82;;;7.13;;
19883;SDS011;10104;50.732;10.174;2023-08-17T10:31:00;8.20;;;6.72;;
19883;SDS011;10104;50.732;10.174;2023-08-17T10:33:40;8.00;;;7.18;;
19883;SDS011;10104;50.732;10.174;2023-08-17T10:36:24;8.27;;;7.47;;
19883;SDS011;10104;50.732;10.174;2023-08-17T10:39:17;7.53;;;6.82;;
19883;SDS011;10104;50.732;10.174;2023-08-17T10:42:09;7.85;;;7.05;;
19883;SDS011;10104;50.732;10.174;2023-08-17T10:44:49;8.13;;;6.90;;
19883;SDS011;10104;50.732;10.174;2023-08-17T10:47:30;8.57;;;7.13;;
19883;SDS011;10104;50.732;10.174;2023-08-17T10:50:24;8.05;;;7.35;;
19883;SDS011;10104;50.732;10.174;2023-08-17T10:53:11;8.18;;;7.40;;
19883;SDS011;10104;50.732;10.174;2023-08-17T10:55:56;8.30;;;7.00;;
19883;SDS011;10104;50.732;10.174;2023-08-17T10:58:37;7.45;;;6.75;;
19883;SDS011;10104;50.732;10.174;2023-08-17T11:01:33;10.23;;;8.25;;
19883;SDS011;10104;50.732;10.174;2023-08-17T11:04:16;8.73;;;7.82;;
19883;SDS011;10104;50.732;10.174;2023-08-17T11:07:00;8.95;;;7.32;;
19883;SDS011;10104;50.732;10.174;2023-08-17T11:09:41;9.20;;;8.40;;
19883;SDS011;10104;50.732;10.174;2023-08-17T11:12:27;8.57;;;7.53;;
19883;SDS011;10104;50.732;10.174;2023-08-17T11:15:07;9.88;;;8.82;;
19883;SDS011;10104;50.732;10.174;2023-08-17T11:17:48;8.98;;;8.07;;
19883;SDS011;10104;50.732;10.174;2023-08-17T11:20:28;9.57;;;8.68;;
19883;SDS011;10104;50.732;10.174;2023-08-17T11:23:09;9.50;;;8.63;;
19883;SDS011;10104;50.732;10.174;2023-08-17T11:25:52;7.90;;;7.28;;
19883;SDS011;10104;50.732;10.174;2023-08-17T11:28:33;8.07;;;7.25;;
19883;SDS011;10104;50.732;10.174;2023-08-17T11:31:21;7.93;;;7.22;;
19883;SDS011;10104;50.732;10.174;2023-08-17T11:34:02;8.20;;;7.40;;
19883;SDS011;10104;50.732;10.174;2023-08-17T11:36:42;6.93;;;6.30;;
19883;SDS011;10104;50.732;10.174;2023-08-17T11:39:23;6.57;;;5.97;;
19883;SDS011;10104;50.732;10.174;2023-08-17T11:42:03;7.28;;;6.68;;
19883;SDS011;10104;50.732;10.174;2023-08-17T11:44:44;7.18;;;6.57;;
19883;SDS011;10104;50.732;10.174;2023-08-17T11:47:24;6.68;;;6.07;;
19883;SDS011;10104;50.732;10.174;2023-08-17T11:50:11;6.50;;;5.90;;
19883;SDS011;10104;50.732;10.174;2023-08-17T11:53:00;6.75;;;5.82;;
19883;SDS011;10104;50.732;10.174;2023-08-17T11:55:41;7.15;;;5.85;;
19883;SDS011;10104;50.732;10.174;2023-08-17T11:58:35;6.38;;;5.88;;
19883;SDS011;10104;50.732;10.174;2023-08-17T12:01:17;5.88;;;5.38;;
19883;SDS011;10104;50.732;10.174;2023-08-17T12:03:57;6.47;;;5.97;;
19883;SDS011;10104;50.732;10.174;2023-08-17T12:06:43;6.03;;;5.40;;
19883;SDS011;10104;50.732;10.174;2023-08-17T12:09:25;6.82;;;5.63;;
19883;SDS011;10104;50.732;10.174;2023-08-17T12:12:05;5.70;;;5.13;;
19883;SDS011;10104;50.732;10.174;2023-08-17T12:14:46;5.20;;;4.80;;
19883;SDS011;10104;50.732;10.174;2023-08-17T12:17:27;6.80;;;5.40;;
19883;SDS011;10104;50.732;10.174;2023-08-17T12:20:07;5.20;;;4.70;;
19883;SDS011;10104;50.732;10.174;2023-08-17T12:22:47;4.85;;;4.45;;
19883;SDS011;10104;50.732;10.174;2023-08-17T12:25:28;4.75;;;4.35;;
19883;SDS011;10104;50.732;10.174;2023-08-17T12:28:08;5.68;;;5.18;;
19883;SDS011;10104;50.732;10.174;2023-08-17T12:30:55;5.20;;;4.70;;
19883;SDS011;10104;50.732;10.174;2023-08-17T12:33:37;5.40;;;4.90;;
19883;SDS011;10104;50.732;10.174;2023-08-17T12:36:17;5.20;;;4.75;;
19883;SDS011;10104;50.732;10.174;2023-08-17T12:38:59;5.90;;;5.30;;
19883;SDS011;10104;50.732;10.174;2023-08-17T12:41:42;5.22;;;4.80;;
19883;SDS011;10104;50.732;10.174;2023-08-17T12:44:22;7.53;;;4.80;;
19883;SDS011;10104;50.732;10.174;2023-08-17T12:47:02;6.57;;;4.63;;
19883;SDS011;10104;50.732;10.174;2023-08-17T12:49:42;6.80;;;5.10;;
19883;SDS011;10104;50.732;10.174;2023-08-17T12:52:22;5.60;;;5.18;;
19883;SDS011;10104;50.732;10.174;2023-08-17T12:55:04;6.47;;;4.97;;
19883;SDS011;10104;50.732;10.174;2023-08-17T12:57:44;7.57;;;4.85;;
19883;SDS011;10104;50.732;10.174;2023-08-17T13:00:25;5.15;;;4.68;;
19883;SDS011;10104;50.732;10.174;2023-08-17T13:03:05;5.05;;;4.65;;
19883;SDS011;10104;50.732;10.174;2023-08-17T13:05:48;4.78;;;4.38;;
19883;SDS011;10104;50.732;10.174;2023-08-17T13:08:29;5.40;;;4.90;;
19883;SDS011;10104;50.732;10.174;2023-08-17T13:11:10;6.75;;;5.03;;
19883;SDS011;10104;50.732;10.174;2023-08-17T13:13:50;5.30;;;4.90;;
19883;SDS011;10104;50.732;10.174;2023-08-17T13:16:30;5.13;;;4.47;;
19883;SDS011;10104;50.732;10.174;2023-08-17T13:19:10;5.40;;;4.90;;
19883;SDS011;10104;50.732;10.174;2023-08-17T13:21:50;7.10;;;5.00;;
19883;SDS011;10104;50.732;10.174;2023-08-17T13:24:31;5.03;;;4.63;;
19883;SDS011;10104;50.732;10.174;2023-08-17T13:27:11;5.05;;;4.38;;
19883;SDS011;10104;50.732;10.174;2023-08-17T13:29:51;4.93;;;4.40;;
19883;SDS011;10104;50.732;10.174;2023-08-17T13:32:31;5.30;;;4.68;;
19883;SDS011;10104;50.732;10.174;2023-08-17T13:35:11;7.47;;;4.65;;
19883;SDS011;10104;50.732;10.174;2023-08-17T13:37:52;5.28;;;4.88;;
19883;SDS011;10104;50.732;10.174;2023-08-17T13:40:33;5.18;;;4.75;;
19883;SDS011;10104;50.732;10.174;2023-08-17T13:43:16;5.05;;;4.60;;
19883;SDS011;10104;50.732;10.174;2023-08-17T13:45:56;5.40;;;4.72;;
19883;SDS011;10104;50.732;10.174;2023-08-17T13:48:36;5.22;;;4.72;;
19883;SDS011;10104;50.732;10.174;2023-08-17T13:51:18;4.90;;;4.50;;
19883;SDS011;10104;50.732;10.174;2023-08-17T13:53:58;5.45;;;4.50;;
19883;SDS011;10104;50.732;10.174;2023-08-17T13:56:38;5.03;;;4.50;;
19883;SDS011;10104;50.732;10.174;2023-08-17T13:59:19;4.80;;;4.40;;
19883;SDS011;10104;50.732;10.174;2023-08-17T14:01:59;5.20;;;4.50;;
19883;SDS011;10104;50.732;10.174;2023-08-17T14:04:39;4.88;;;4.43;;
19883;SDS011;10104;50.732;10.174;2023-08-17T14:07:20;7.40;;;5.15;;
19883;SDS011;10104;50.732;10.174;2023-08-17T14:10:00;5.07;;;4.68;;
19883;SDS011;10104;50.732;10.174;2023-08-17T14:12:49;9.35;;;4.90;;
19883;SDS011;10104;50.732;10.174;2023-08-17T14:15:29;6.57;;;4.38;;
19883;SDS011;10104;50.732;10.174;2023-08-17T14:18:09;4.80;;;4.50;;
19883;SDS011;10104;50.732;10.174;2023-08-17T14:20:50;5.10;;;4.60;;
19883;SDS011;10104;50.732;10.174;2023-08-17T14:23:30;5.10;;;4.47;;
19883;SDS011;10104;50.732;10.174;2023-08-17T14:26:10;4.60;;;4.20;;
19883;SDS011;10104;50.732;10.174;2023-08-17T14:28:50;4.88;;;4.38;;
19883;SDS011;10104;50.732;10.174;2023-08-17T14:31:52;5.22;;;4.50;;
19883;SDS011;10104;50.732;10.174;2023-08-17T14:34:38;4.75;;;4.35;;
19883;SDS011;10104;50.732;10.174;2023-08-17T14:37:26;5.70;;;4.70;;
19883;SDS011;10104;50.732;10.174;2023-08-17T14:40:12;5.20;;;4.70;;
19883;SDS011;10104;50.732;10.174;2023-08-17T14:42:53;5.20;;;4.57;;
19883;SDS011;10104;50.732;10.174;2023-08-17T14:45:33;5.85;;;4.20;;
19883;SDS011;10104;50.732;10.174;2023-08-17T14:48:13;4.68;;;4.28;;
19883;SDS011;10104;50.732;10.174;2023-08-17T14:50:54;6.75;;;4.35;;
19883;SDS011;10104;50.732;10.174;2023-08-17T14:53:35;5.07;;;4.07;;
19883;SDS011;10104;50.732;10.174;2023-08-17T14:56:19;7.18;;;4.53;;
19883;SDS011;10104;50.732;10.174;2023-08-17T14:58:59;6.32;;;4.10;;
19883;SDS011;10104;50.732;10.174;2023-08-17T15:01:40;5.00;;;4.38;;
19883;SDS011;10104;50.732;10.174;2023-08-17T15:04:20;5.78;;;4.18;;
19883;SDS011;10104;50.732;10.174;2023-08-17T15:07:05;4.85;;;4.45;;
19883;SDS011;10104;50.732;10.174;2023-08-17T15:09:54;6.10;;;4.97;;
19883;SDS011;10104;50.732;10.174;2023-08-17T15:12:34;5.45;;;4.35;;
19883;SDS011;10104;50.732;10.174;2023-08-17T15:15:15;5.38;;;4.65;;
19883;SDS011;10104;50.732;10.174;2023-08-17T15:18:00;5.10;;;4.70;;
19883;SDS011;10104;50.732;10.174;2023-08-17T15:20:40;4.95;;;4.25;;
19883;SDS011;10104;50.732;10.174;2023-08-17T15:23:20;6.88;;;4.30;;
19883;SDS011;10104;50.732;10.174;2023-08-17T15:26:01;5.65;;;4.32;;
19883;SDS011;10104;50.732;10.174;2023-08-17T15:28:41;5.47;;;4.28;;
19883;SDS011;10104;50.732;10.174;2023-08-17T15:31:21;7.85;;;4.53;;
19883;SDS011;10104;50.732;10.174;2023-08-17T15:34:02;4.88;;;4.40;;
19883;SDS011;10104;50.732;10.174;2023-08-17T15:36:42;6.40;;;4.60;;
19883;SDS011;10104;50.732;10.174;2023-08-17T15:39:22;5.18;;;4.43;;
19883;SDS011;10104;50.732;10.174;2023-08-17T15:42:02;6.47;;;4.90;;
19883;SDS011;10104;50.732;10.174;2023-08-17T15:44:43;5.22;;;4.68;;
19883;SDS011;10104;50.732;10.174;2023-08-17T15:47:23;6.40;;;4.88;;
19883;SDS011;10104;50.732;10.174;2023-08-17T15:50:03;5.07;;;4.53;;
19883;SDS011;10104;50.732;10.174;2023-08-17T15:52:43;5.85;;;4.65;;
19883;SDS011;10104;50.732;10.174;2023-08-17T15:55:23;5.68;;;4.60;;
19883;SDS011;10104;50.732;10.174;2023-08-17T15:58:04;4.85;;;4.00;;